createdAt,value
2023-01-10T00:00:45.783Z,101.75
2023-01-10T00:03:12.735Z,104.13
2023-01-10T00:05:40.336Z,107.35
2023-01-10T00:08:08.779Z,104.35
2023-01-10T00:10:35.650Z,105.03
2023-01-10T00:13:20.708Z,101.68
2023-01-10T00:18:14.160Z,80.45
2023-01-10T00:20:40.714Z,92.00
2023-01-10T00:23:07.295Z,97.50
2023-01-10T00:25:35.966Z,102.43
2023-01-10T00:28:19.730Z,103.90
2023-01-10T00:30:55.049Z,95.78
2023-01-10T00:33:22.292Z,99.50
2023-01-10T00:35:49.040Z,103.45
2023-01-10T00:38:16.071Z,106.93
2023-01-10T00:40:42.685Z,105.63
2023-01-10T00:43:28.972Z,109.25
2023-01-10T00:45:57.489Z,98.45
2023-01-10T00:48:24.263Z,102.15
2023-01-10T00:50:51.119Z,103.18
2023-01-10T00:53:17.655Z,101.70
2023-01-10T00:55:44.643Z,103.00
2023-01-10T00:58:11.947Z,100.03
2023-01-10T01:00:38.994Z,98.88
2023-01-10T01:03:07.133Z,101.88
2023-01-10T01:05:34.258Z,99.15
2023-01-10T01:08:00.805Z,98.90
2023-01-10T01:10:27.380Z,98.38
2023-01-10T01:13:06.064Z,97.57
2023-01-10T01:15:35.200Z,92.68
2023-01-10T01:18:02.592Z,96.72
2023-01-10T01:20:29.675Z,98.75
2023-01-10T01:22:56.514Z,99.82
2023-01-10T01:25:23.104Z,102.43
2023-01-10T01:27:50.071Z,101.97
2023-01-10T01:30:16.818Z,102.70
2023-01-10T01:32:43.694Z,103.35
2023-01-10T01:35:13.973Z,99.35
2023-01-10T01:37:41.927Z,97.30
2023-01-10T01:40:14.728Z,98.20
2023-01-10T01:42:42.397Z,97.07
2023-01-10T01:45:08.907Z,97.30
2023-01-10T01:47:46.909Z,97.40
2023-01-10T01:50:24.720Z,91.47
2023-01-10T01:52:55.131Z,84.13
2023-01-10T01:55:22.677Z,87.97
2023-01-10T01:57:52.001Z,88.32
2023-01-10T02:00:18.932Z,89.50
2023-01-10T02:03:02.580Z,91.70
2023-01-10T02:05:32.463Z,87.67
2023-01-10T02:08:02.301Z,84.80
2023-01-10T02:10:34.749Z,87.18
2023-01-10T02:13:05.861Z,87.05
2023-01-10T02:15:32.489Z,89.10
2023-01-10T02:18:01.592Z,92.00
2023-01-10T02:20:29.886Z,89.85
2023-01-10T02:22:56.434Z,92.85
2023-01-10T02:25:44.255Z,91.00
2023-01-10T02:28:23.042Z,83.93
2023-01-10T02:31:01.704Z,80.53
2023-01-10T02:33:34.841Z,81.05
2023-01-10T02:36:07.688Z,81.15
2023-01-10T02:38:39.886Z,82.25
2023-01-10T02:41:20.613Z,84.43
2023-01-10T02:43:53.319Z,80.88
2023-01-10T02:46:25.563Z,83.43
2023-01-10T02:48:54.179Z,79.85
2023-01-10T02:51:29.951Z,79.47
2023-01-10T02:54:12.096Z,77.38
2023-01-10T02:56:57.002Z,75.20
2023-01-10T02:59:38.837Z,72.35
2023-01-10T03:02:25.591Z,74.22
2023-01-10T03:05:11.116Z,71.63
2023-01-10T03:07:43.319Z,71.18
2023-01-10T03:10:48.317Z,73.28
2023-01-10T03:13:31.186Z,66.95
2023-01-10T03:16:00.470Z,66.22
2023-01-10T03:19:05.769Z,71.65
2023-01-10T03:21:34.197Z,63.65
2023-01-10T03:24:05.948Z,64.65
2023-01-10T03:26:53.460Z,62.85
2023-01-10T03:29:28.901Z,62.78
2023-01-10T03:32:01.406Z,63.08
2023-01-10T03:34:28.419Z,63.92
2023-01-10T03:37:23.826Z,65.05
2023-01-10T03:43:09.298Z,52.72
2023-01-10T03:45:49.627Z,54.67
2023-01-10T03:48:18.475Z,57.40
2023-01-10T03:50:46.063Z,59.22
2023-01-10T03:53:13.230Z,58.25
2023-01-10T03:55:41.659Z,60.72
2023-01-10T03:58:08.210Z,61.05
2023-01-10T04:00:34.842Z,62.90
2023-01-10T04:03:01.422Z,62.85
2023-01-10T04:05:27.999Z,62.40
2023-01-10T04:07:54.547Z,63.35
2023-01-10T04:10:21.187Z,63.83
2023-01-10T04:12:47.724Z,64.53
2023-01-10T04:15:14.347Z,64.82
2023-01-10T04:17:40.907Z,64.32
2023-01-10T04:20:08.133Z,62.47
2023-01-10T04:22:34.700Z,64.38
2023-01-10T04:25:01.262Z,64.43
2023-01-10T04:27:27.810Z,64.03
2023-01-10T04:29:54.400Z,63.03
2023-01-10T04:32:20.976Z,64.32
2023-01-10T04:34:47.523Z,64.63
2023-01-10T04:37:14.097Z,65.63
2023-01-10T04:39:40.679Z,66.80
2023-01-10T04:42:07.380Z,67.78
2023-01-10T04:44:34.158Z,69.95
2023-01-10T04:47:00.773Z,71.88
2023-01-10T04:49:27.400Z,72.55
2023-01-10T04:51:54.043Z,73.20
2023-01-10T04:54:21.831Z,71.97
2023-01-10T04:56:48.609Z,74.47
2023-01-10T04:59:15.778Z,70.97
2023-01-10T05:01:42.561Z,71.30
2023-01-10T05:04:09.705Z,70.95
2023-01-10T05:06:37.298Z,72.60
2023-01-10T05:09:04.946Z,75.63
2023-01-10T05:11:31.513Z,72.78
2023-01-10T05:13:58.058Z,74.82
2023-01-10T05:16:25.528Z,74.57
2023-01-10T05:18:52.228Z,74.68
2023-01-10T05:21:19.029Z,75.25
2023-01-10T05:23:45.743Z,76.65
2023-01-10T05:26:22.890Z,74.57
2023-01-10T05:28:49.877Z,71.72
2023-01-10T05:31:19.747Z,75.03
2023-01-10T05:33:50.872Z,71.50
2023-01-10T05:36:19.228Z,70.78
2023-01-10T05:38:46.268Z,69.85
2023-01-10T05:41:12.875Z,70.43
2023-01-10T05:43:39.770Z,72.32
2023-01-10T05:46:06.418Z,69.78
2023-01-10T05:48:33.014Z,67.80
2023-01-10T05:50:59.641Z,65.50
2023-01-10T05:53:26.477Z,65.60
2023-01-10T05:55:58.052Z,62.08
2023-01-10T05:58:25.373Z,61.67
2023-01-10T06:00:52.180Z,62.22
2023-01-10T06:03:19.199Z,60.08
2023-01-10T06:05:48.483Z,59.22
2023-01-10T06:08:15.452Z,57.70
2023-01-10T06:10:43.080Z,56.00
2023-01-10T06:13:09.920Z,57.00
2023-01-10T06:15:36.682Z,54.42
2023-01-10T06:18:03.604Z,57.10
2023-01-10T06:20:30.273Z,54.50
2023-01-10T06:22:56.872Z,54.08
2023-01-10T06:25:23.460Z,52.42
2023-01-10T06:27:50.000Z,51.88
2023-01-10T06:30:16.753Z,51.17
2023-01-10T06:32:43.369Z,50.13
2023-01-10T06:35:10.461Z,49.13
2023-01-10T06:37:37.281Z,47.80
2023-01-10T06:40:05.326Z,47.72
2023-01-10T06:42:32.007Z,46.47
2023-01-10T06:44:58.541Z,47.00
2023-01-10T06:47:25.237Z,46.40
2023-01-10T06:49:52.388Z,45.95
2023-01-10T06:52:19.028Z,45.67
2023-01-10T06:54:45.628Z,45.33
2023-01-10T06:57:12.190Z,44.08
2023-01-10T06:59:38.857Z,45.25
2023-01-10T07:02:05.499Z,44.95
2023-01-10T07:04:32.253Z,44.05
2023-01-10T07:06:58.820Z,44.05
2023-01-10T07:09:25.469Z,43.90
2023-01-10T07:11:52.043Z,44.53
2023-01-10T07:14:18.850Z,43.45
2023-01-10T07:16:45.423Z,42.55
2023-01-10T07:19:13.654Z,42.97
2023-01-10T07:21:41.697Z,43.22
2023-01-10T07:24:09.037Z,41.72
2023-01-10T07:26:36.071Z,41.05
2023-01-10T07:29:02.796Z,41.75
2023-01-10T07:31:29.597Z,41.00
2023-01-10T07:33:56.195Z,41.53
2023-01-10T07:36:22.881Z,40.53
2023-01-10T07:38:49.512Z,41.55
2023-01-10T07:41:16.110Z,42.00
2023-01-10T07:43:42.679Z,41.05
2023-01-10T07:46:12.190Z,40.75
2023-01-10T07:48:41.880Z,40.63
2023-01-10T07:51:09.157Z,40.70
2023-01-10T07:53:35.739Z,41.70
2023-01-10T07:56:04.272Z,40.47
2023-01-10T07:58:31.250Z,40.65
2023-01-10T08:01:02.561Z,42.17
2023-01-10T08:03:30.288Z,40.42
2023-01-10T08:06:05.604Z,40.58
2023-01-10T08:08:34.000Z,39.83
2023-01-10T08:11:02.551Z,41.38
2023-01-10T08:13:30.217Z,40.92
2023-01-10T08:15:57.102Z,41.13
2023-01-10T08:18:26.383Z,41.08
2023-01-10T08:20:54.096Z,40.03
2023-01-10T08:23:21.266Z,40.05
2023-01-10T08:25:48.276Z,40.67
2023-01-10T08:28:15.076Z,41.25
2023-01-10T08:30:41.688Z,40.47
2023-01-10T08:33:09.647Z,40.03
2023-01-10T08:35:41.419Z,39.90
2023-01-10T08:38:09.291Z,38.45
2023-01-10T08:40:35.996Z,40.42
2023-01-10T08:43:05.316Z,39.70
2023-01-10T08:45:32.911Z,38.55
2023-01-10T08:48:00.768Z,38.17
2023-01-10T08:50:27.539Z,37.88
2023-01-10T08:52:54.185Z,37.38
2023-01-10T08:55:20.929Z,37.75
2023-01-10T08:57:47.689Z,37.42
2023-01-10T09:00:14.750Z,37.25
2023-01-10T09:02:41.707Z,38.33
2023-01-10T09:05:18.656Z,37.13
2023-01-10T09:07:52.995Z,37.17
2023-01-10T09:10:19.677Z,37.42
2023-01-10T09:12:54.786Z,37.78
2023-01-10T09:15:23.245Z,36.13
2023-01-10T09:17:52.730Z,36.25
2023-01-10T09:20:19.334Z,37.50
2023-01-10T09:22:45.916Z,36.83
2023-01-10T09:25:12.526Z,36.55
2023-01-10T09:27:39.102Z,37.03
2023-01-10T09:30:06.114Z,37.60
2023-01-10T09:32:32.707Z,36.53
2023-01-10T09:34:59.219Z,36.15
2023-01-10T09:37:25.785Z,36.50
2023-01-10T09:39:52.927Z,35.70
2023-01-10T09:42:49.766Z,36.47
2023-01-10T09:45:38.620Z,34.60
2023-01-10T09:48:09.216Z,34.85
2023-01-10T09:51:00.583Z,33.65
2023-01-10T09:53:31.194Z,33.83
2023-01-10T09:56:00.156Z,34.33
2023-01-10T09:58:32.255Z,33.95
2023-01-10T10:01:03.752Z,34.58
2023-01-10T10:03:36.454Z,33.92
2023-01-10T10:06:12.001Z,33.30
2023-01-10T10:08:44.311Z,33.38
2023-01-10T10:11:26.082Z,32.42
2023-01-10T10:14:26.182Z,33.22
2023-01-10T10:17:11.184Z,31.27
2023-01-10T10:22:28.206Z,30.60
2023-01-10T10:25:27.178Z,30.95
2023-01-10T10:28:20.641Z,30.45
2023-01-10T10:31:15.211Z,31.10
2023-01-10T10:34:12.665Z,30.73
2023-01-10T10:36:57.405Z,31.75
2023-01-10T10:39:31.132Z,31.13
2023-01-10T10:41:58.287Z,31.73
2023-01-10T10:44:39.224Z,32.28
2023-01-10T10:47:15.093Z,30.73
2023-01-10T10:50:07.070Z,31.63
2023-01-10T10:52:36.575Z,31.77
2023-01-10T10:55:06.045Z,32.92
2023-01-10T10:57:38.742Z,31.55
2023-01-10T11:00:10.006Z,32.00
2023-01-10T11:02:43.666Z,32.08
2023-01-10T11:05:20.273Z,32.05
2023-01-10T11:07:47.137Z,31.95
2023-01-10T11:10:39.250Z,32.90
2023-01-10T11:13:22.967Z,31.33
2023-01-10T11:15:50.830Z,31.60
2023-01-10T11:18:28.499Z,32.33
2023-01-10T11:20:58.183Z,32.58
2023-01-10T11:23:49.639Z,32.55
2023-01-10T11:26:25.357Z,32.35
2023-01-10T11:28:56.047Z,33.05
2023-01-10T11:31:29.667Z,33.35
2023-01-10T11:33:57.404Z,32.92
2023-01-10T11:36:24.013Z,32.70
2023-01-10T11:39:04.668Z,33.88
2023-01-10T11:41:34.604Z,34.17
2023-01-10T11:44:23.633Z,34.90
2023-01-10T11:46:54.348Z,33.45
2023-01-10T11:49:33.034Z,33.00
2023-01-10T11:52:04.488Z,33.05
2023-01-10T11:54:32.737Z,33.80
2023-01-10T11:56:59.318Z,34.10
2023-01-10T11:59:27.555Z,33.97
2023-01-10T12:02:02.250Z,35.30
2023-01-10T12:07:03.191Z,31.98
2023-01-10T12:09:35.828Z,34.30
2023-01-10T12:12:05.853Z,34.20
2023-01-10T12:14:32.560Z,33.25
2023-01-10T12:17:01.156Z,34.22
2023-01-10T12:19:29.388Z,35.25
2023-01-10T12:22:02.172Z,36.72
2023-01-10T12:24:34.849Z,35.35
2023-01-10T12:27:06.316Z,36.58
2023-01-10T12:29:58.141Z,37.00
2023-01-10T12:32:30.817Z,36.70
2023-01-10T12:35:04.556Z,37.42
2023-01-10T12:37:54.475Z,38.17
2023-01-10T12:40:44.660Z,35.85
2023-01-10T12:43:47.776Z,36.33
2023-01-10T12:46:52.958Z,36.33
2023-01-10T12:49:27.131Z,35.55
2023-01-10T12:51:58.453Z,39.05
2023-01-10T12:54:28.962Z,35.65
2023-01-10T12:56:58.830Z,37.30
2023-01-10T12:59:38.248Z,37.47
2023-01-10T13:02:12.325Z,38.70
2023-01-10T13:04:41.438Z,37.65
2023-01-10T13:07:12.571Z,38.22
2023-01-10T13:09:42.574Z,37.92
2023-01-10T13:12:21.993Z,38.47
2023-01-10T13:15:06.927Z,37.60
2023-01-10T13:17:33.428Z,37.75
2023-01-10T13:20:17.982Z,37.83
2023-01-10T13:22:51.316Z,37.17
2023-01-10T13:25:24.772Z,37.55
2023-01-10T13:28:17.787Z,38.38
2023-01-10T13:30:53.629Z,37.20
2023-01-10T13:33:25.018Z,36.67
2023-01-10T13:35:54.585Z,37.17
2023-01-10T13:38:37.335Z,36.88
2023-01-10T13:41:07.853Z,36.50
2023-01-10T13:43:34.714Z,37.38
2023-01-10T13:46:16.735Z,37.05
2023-01-10T13:48:49.419Z,36.00
2023-01-10T13:51:21.815Z,35.60
2023-01-10T13:53:56.318Z,37.42
2023-01-10T13:56:40.782Z,36.58
2023-01-10T13:59:32.871Z,37.22
2023-01-10T14:02:20.248Z,36.33
2023-01-10T14:04:55.806Z,34.47
2023-01-10T14:07:35.643Z,36.13
2023-01-10T14:10:19.095Z,37.05
2023-01-10T14:12:59.184Z,36.45
2023-01-10T14:15:34.105Z,36.97
2023-01-10T14:18:17.380Z,37.40
2023-01-10T14:20:44.499Z,36.35
2023-01-10T14:23:21.216Z,38.03
2023-01-10T14:25:54.779Z,36.92
2023-01-10T14:28:26.281Z,37.97
2023-01-10T14:31:12.481Z,37.80
2023-01-10T14:33:43.669Z,37.90
2023-01-10T14:36:17.335Z,38.35
2023-01-10T14:38:46.507Z,39.03
2023-01-10T14:41:12.993Z,38.65
2023-01-10T14:44:01.917Z,39.78
2023-01-10T14:46:46.167Z,37.10
2023-01-10T14:49:27.806Z,38.85
2023-01-10T14:52:19.413Z,38.40
2023-01-10T14:54:47.254Z,37.78
2023-01-10T14:57:22.543Z,37.85
2023-01-10T14:59:50.672Z,39.13
2023-01-10T15:02:26.576Z,38.60
2023-01-10T15:04:56.766Z,39.60
2023-01-10T15:07:25.413Z,38.55
2023-01-10T15:09:56.471Z,39.13
2023-01-10T15:12:27.777Z,39.45
2023-01-10T15:15:04.473Z,40.60
2023-01-10T15:17:32.075Z,39.13
2023-01-10T15:19:58.926Z,45.47
2023-01-10T15:22:35.705Z,40.45
2023-01-10T15:25:08.355Z,40.63
2023-01-10T15:27:36.943Z,40.42
2023-01-10T15:30:08.103Z,40.00
2023-01-10T15:32:40.092Z,40.63
2023-01-10T15:35:10.966Z,41.28
2023-01-10T15:37:41.000Z,40.83
2023-01-10T15:40:20.108Z,40.92
2023-01-10T15:42:46.682Z,41.40
2023-01-10T15:45:37.597Z,41.25
2023-01-10T15:48:04.564Z,40.80
2023-01-10T15:50:34.049Z,41.78
2023-01-10T15:53:08.991Z,43.22
2023-01-10T15:55:56.408Z,42.42
2023-01-10T15:58:28.680Z,40.83
2023-01-10T16:00:57.579Z,43.28
2023-01-10T16:03:36.066Z,42.55
2023-01-10T16:06:08.831Z,41.70
2023-01-10T16:08:37.968Z,42.03
2023-01-10T16:11:07.979Z,43.60
2023-01-10T16:13:36.660Z,43.08
2023-01-10T16:16:08.439Z,45.10
2023-01-10T16:18:35.056Z,43.42
2023-01-10T16:21:05.557Z,42.17
2023-01-10T16:23:35.357Z,42.67
2023-01-10T16:26:06.076Z,43.65
2023-01-10T16:28:36.210Z,45.80
2023-01-10T16:31:06.395Z,43.33
2023-01-10T16:33:33.881Z,45.45
2023-01-10T16:36:00.869Z,44.05
2023-01-10T16:38:29.019Z,44.38
2023-01-10T16:40:58.575Z,46.30
2023-01-10T16:43:26.958Z,45.05
2023-01-10T16:46:01.873Z,46.53
2023-01-10T16:48:30.596Z,50.80
2023-01-10T16:51:23.573Z,46.92
2023-01-10T16:53:50.910Z,46.65
2023-01-10T16:56:26.248Z,49.08
2023-01-10T16:58:54.611Z,47.72
2023-01-10T17:01:29.248Z,50.72
2023-01-10T17:06:23.257Z,47.45
2023-01-10T17:08:49.901Z,47.95
2023-01-10T17:11:20.292Z,50.42
2023-01-10T17:13:49.583Z,50.38
2023-01-10T17:16:18.645Z,50.03
2023-01-10T17:18:47.169Z,52.95
2023-01-10T17:21:16.494Z,53.22
2023-01-10T17:23:43.660Z,53.38
2023-01-10T17:26:12.716Z,53.97
2023-01-10T17:28:41.114Z,54.03
2023-01-10T17:31:08.504Z,56.30
2023-01-10T17:33:35.171Z,57.80
2023-01-10T17:36:01.723Z,58.92
2023-01-10T17:38:28.967Z,58.83
2023-01-10T17:41:01.990Z,63.55
2023-01-10T17:43:29.940Z,64.80
2023-01-10T17:45:58.956Z,65.57
2023-01-10T17:48:25.961Z,66.75
2023-01-10T17:50:57.991Z,69.38
2023-01-10T17:53:25.019Z,70.65
2023-01-10T17:55:51.773Z,70.47
2023-01-10T17:58:19.333Z,72.82
2023-01-10T18:00:46.903Z,74.05
2023-01-10T18:03:13.610Z,71.03
2023-01-10T18:05:40.263Z,75.85
2023-01-10T18:08:08.006Z,70.65
2023-01-10T18:10:34.730Z,68.40
2023-01-10T18:13:03.335Z,74.55
2023-01-10T18:15:30.262Z,77.45
2023-01-10T18:17:57.873Z,75.00
2023-01-10T18:20:24.620Z,77.82
2023-01-10T18:23:09.749Z,72.85
2023-01-10T18:25:36.321Z,76.72
2023-01-10T18:28:02.923Z,80.00
2023-01-10T18:30:29.508Z,74.68
2023-01-10T18:32:56.882Z,79.20
2023-01-10T18:35:23.602Z,79.20
2023-01-10T18:37:50.209Z,76.32
2023-01-10T18:40:17.173Z,73.07
2023-01-10T18:42:43.757Z,70.25
2023-01-10T18:45:10.603Z,77.13
2023-01-10T18:47:37.272Z,70.78
2023-01-10T18:50:05.242Z,74.53
2023-01-10T18:52:31.887Z,71.95
2023-01-10T18:54:59.817Z,76.35
2023-01-10T18:57:28.552Z,75.57
2023-01-10T18:59:55.121Z,79.85
2023-01-10T19:02:21.847Z,79.47
2023-01-10T19:04:48.453Z,79.20
2023-01-10T19:07:14.980Z,75.22
2023-01-10T19:09:41.557Z,75.88
2023-01-10T19:12:08.564Z,77.88
2023-01-10T19:14:35.163Z,73.38
2023-01-10T19:17:01.725Z,67.00
2023-01-10T19:19:28.279Z,68.80
2023-01-10T19:21:54.857Z,76.97
2023-01-10T19:24:32.684Z,68.22
2023-01-10T19:26:59.299Z,72.90
2023-01-10T19:29:25.909Z,72.65
2023-01-10T19:31:53.754Z,74.82
2023-01-10T19:34:20.417Z,71.68
2023-01-10T19:36:46.992Z,67.25
2023-01-10T19:39:14.538Z,62.45
2023-01-10T19:41:41.780Z,58.72
2023-01-10T19:44:12.914Z,64.03
2023-01-10T19:46:40.710Z,60.67
2023-01-10T19:49:08.386Z,63.22
2023-01-10T19:51:39.797Z,65.20
2023-01-10T19:54:08.242Z,63.83
2023-01-10T19:56:35.447Z,63.10
2023-01-10T19:59:02.315Z,59.25
2023-01-10T20:01:30.924Z,56.70
2023-01-10T20:04:03.664Z,56.03
2023-01-10T20:06:32.767Z,55.25
2023-01-10T20:08:59.529Z,57.33
2023-01-10T20:11:36.687Z,56.20
2023-01-10T20:14:09.951Z,53.50
2023-01-10T20:16:36.527Z,55.55
2023-01-10T20:19:05.492Z,55.65
2023-01-10T20:21:32.061Z,54.55
2023-01-10T20:23:58.641Z,49.75
2023-01-10T20:26:30.446Z,53.83
2023-01-10T20:29:01.973Z,52.72
2023-01-10T20:31:29.251Z,44.67
2023-01-10T20:33:56.021Z,50.90
2023-01-10T20:36:24.056Z,52.90
2023-01-10T20:38:51.878Z,54.15
2023-01-10T20:41:29.931Z,51.70
2023-01-10T20:43:57.477Z,53.45
2023-01-10T20:46:26.785Z,51.03
2023-01-10T20:48:55.420Z,51.85
2023-01-10T20:51:24.585Z,49.97
2023-01-10T20:53:51.812Z,52.03
2023-01-10T20:56:26.461Z,51.58
2023-01-10T21:01:33.190Z,49.42
2023-01-10T21:04:01.694Z,52.53
2023-01-10T21:06:28.388Z,52.10
2023-01-10T21:08:55.180Z,46.90
2023-01-10T21:11:21.850Z,50.00
2023-01-10T21:13:48.537Z,50.70
2023-01-10T21:16:18.226Z,45.88
2023-01-10T21:18:45.014Z,47.10
2023-01-10T21:21:18.106Z,50.50
2023-01-10T21:23:44.732Z,51.28
2023-01-10T21:26:13.857Z,50.92
2023-01-10T21:28:43.308Z,54.25
2023-01-10T21:31:10.822Z,49.17
2023-01-10T21:33:38.074Z,48.67
2023-01-10T21:36:05.798Z,50.60
2023-01-10T21:38:33.558Z,49.17
2023-01-10T21:41:11.559Z,45.47
2023-01-10T21:43:38.783Z,45.58
2023-01-10T21:46:05.576Z,47.25
2023-01-10T21:48:32.192Z,45.28
2023-01-10T21:50:59.281Z,45.25
2023-01-10T21:53:26.091Z,45.03
2023-01-10T21:55:52.736Z,43.15
2023-01-10T21:58:19.387Z,42.53
2023-01-10T22:00:45.972Z,42.33
2023-01-10T22:03:12.588Z,42.42
2023-01-10T22:05:39.151Z,43.95
2023-01-10T22:08:05.736Z,41.78
2023-01-10T22:10:32.306Z,42.15
2023-01-10T22:12:58.925Z,41.70
2023-01-10T22:15:27.059Z,43.08
2023-01-10T22:17:53.669Z,42.03
2023-01-10T22:20:20.213Z,41.78
2023-01-10T22:22:46.817Z,42.58
2023-01-10T22:25:13.418Z,41.15
2023-01-10T22:27:44.127Z,38.47
2023-01-10T22:30:11.937Z,35.00
2023-01-10T22:32:38.573Z,37.70
2023-01-10T22:35:05.427Z,38.20
2023-01-10T22:37:32.065Z,36.83
2023-01-10T22:40:00.673Z,35.97
2023-01-10T22:42:27.312Z,35.60
2023-01-10T22:44:53.908Z,35.75
2023-01-10T22:47:20.472Z,36.25
2023-01-10T22:49:47.083Z,36.53
2023-01-10T22:52:13.647Z,35.45
2023-01-10T22:54:40.246Z,35.30
2023-01-10T22:57:06.856Z,35.60
2023-01-10T22:59:34.743Z,35.58
2023-01-10T23:02:01.412Z,35.58
2023-01-10T23:04:28.009Z,36.78
2023-01-10T23:06:56.624Z,38.10
2023-01-10T23:09:23.266Z,37.75
2023-01-10T23:11:49.822Z,38.25
2023-01-10T23:14:16.380Z,41.50
2023-01-10T23:16:42.988Z,40.08
2023-01-10T23:19:09.582Z,39.83
2023-01-10T23:21:36.126Z,42.55
2023-01-10T23:24:02.736Z,41.83
2023-01-10T23:26:29.284Z,45.60
2023-01-10T23:28:55.829Z,47.17
2023-01-10T23:31:24.050Z,49.63
2023-01-10T23:33:51.241Z,53.50
2023-01-10T23:36:18.479Z,52.25
2023-01-10T23:38:45.326Z,51.30
2023-01-10T23:41:11.985Z,49.47
2023-01-10T23:43:38.797Z,52.22
2023-01-10T23:46:07.049Z,53.22
2023-01-10T23:48:33.737Z,53.95
2023-01-10T23:51:00.746Z,56.58
2023-01-10T23:53:27.830Z,54.85
2023-01-10T23:55:54.597Z,56.17
2023-01-10T23:58:23.836Z,58.70
